sensor_id;sensor_type;location;lat;lon;timestamp;temperature;humidity
1391;DHT22;690;51.454;7.194;2022-08-21T00:01:28;20.40;1.00
1391;DHT22;690;51.454;7.194;2022-08-21T00:03:57;20.40;1.00
1391;DHT22;690;51.454;7.194;2022-08-21T00:06:27;20.40;1.00
1391;DHT22;690;51.454;7.194;2022-08-21T00:08:54;20.40;1.00
1391;DHT22;690;51.454;7.194;2022-08-21T00:11:21;20.30;1.00
1391;DHT22;690;51.454;7.194;2022-08-21T00:13:47;20.30;1.00
1391;DHT22;690;51.454;7.194;2022-08-21T00:16:14;20.30;1.00
1391;DHT22;690;51.454;7.194;2022-08-21T00:18:41;20.30;1.00
1391;DHT22;690;51.454;7.194;2022-08-21T00:21:08;20.30;1.00
1391;DHT22;690;51.454;7.194;2022-08-21T00:23:37;20.20;1.00
1391;DHT22;690;51.454;7.194;2022-08-21T00:26:04;20.20;1.00
1391;DHT22;690;51.454;7.194;2022-08-21T00:28:31;20.10;1.00
1391;DHT22;690;51.454;7.194;2022-08-21T00:31:01;20.00;1.00
1391;DHT22;690;51.454;7.194;2022-08-21T00:33:29;20.00;1.00
1391;DHT22;690;51.454;7.194;2022-08-21T00:35:56;19.90;1.00
1391;DHT22;690;51.454;7.194;2022-08-21T00:38:23;19.90;1.00
1391;DHT22;690;51.454;7.194;2022-08-21T00:40:57;19.90;1.00
1391;DHT22;690;51.454;7.194;2022-08-21T00:43:26;19.80;1.00
1391;DHT22;690;51.454;7.194;2022-08-21T00:45:54;19.70;1.00
1391;DHT22;690;51.454;7.194;2022-08-21T00:48:24;19.70;1.00
1391;DHT22;690;51.454;7.194;2022-08-21T00:50:55;19.70;1.00
1391;DHT22;690;51.454;7.194;2022-08-21T00:53:23;19.70;1.00
1391;DHT22;690;51.454;7.194;2022-08-21T00:55:53;19.60;1.00
1391;DHT22;690;51.454;7.194;2022-08-21T00:58:21;19.60;1.00
1391;DHT22;690;51.454;7.194;2022-08-21T01:00:50;19.60;1.00
1391;DHT22;690;51.454;7.194;2022-08-21T01:03:21;19.60;1.00
1391;DHT22;690;51.454;7.194;2022-08-21T01:05:52;19.60;1.00
1391;DHT22;690;51.454;7.194;2022-08-21T01:08:20;19.60;1.00
1391;DHT22;690;51.454;7.194;2022-08-21T01:10:47;19.60;1.00
1391;DHT22;690;51.454;7.194;2022-08-21T01:13:18;19.60;1.00
1391;DHT22;690;51.454;7.194;2022-08-21T01:15:48;19.60;1.00
1391;DHT22;690;51.454;7.194;2022-08-21T01:18:16;19.70;1.00
1391;DHT22;690;51.454;7.194;2022-08-21T01:20:56;19.70;1.00
1391;DHT22;690;51.454;7.194;2022-08-21T01:23:23;19.70;1.00
1391;DHT22;690;51.454;7.194;2022-08-21T01:25:50;19.70;1.00
1391;DHT22;690;51.454;7.194;2022-08-21T01:28:17;19.70;1.00
1391;DHT22;690;51.454;7.194;2022-08-21T01:30:47;19.70;1.00
1391;DHT22;690;51.454;7.194;2022-08-21T01:33:16;19.70;1.00
1391;DHT22;690;51.454;7.194;2022-08-21T01:35:43;19.60;1.00
1391;DHT22;690;51.454;7.194;2022-08-21T01:38:11;19.60;1.00
1391;DHT22;690;51.454;7.194;2022-08-21T01:40:40;19.60;1.00
1391;DHT22;690;51.454;7.194;2022-08-21T01:43:07;19.50;1.00
1391;DHT22;690;51.454;7.194;2022-08-21T01:45:34;19.50;1.00
1391;DHT22;690;51.454;7.194;2022-08-21T01:48:01;19.40;1.00
1391;DHT22;690;51.454;7.194;2022-08-21T01:50:28;19.40;1.00
1391;DHT22;690;51.454;7.194;2022-08-21T01:52:55;19.40;1.00
1391;DHT22;690;51.454;7.194;2022-08-21T01:55:27;19.30;1.00
1391;DHT22;690;51.454;7.194;2022-08-21T01:57:54;19.30;1.00
1391;DHT22;690;51.454;7.194;2022-08-21T02:00:26;19.30;1.00
1391;DHT22;690;51.454;7.194;2022-08-21T02:02:55;19.20;14.10
1391;DHT22;690;51.454;7.194;2022-08-21T02:05:22;19.20;24.90
1391;DHT22;690;51.454;7.194;2022-08-21T02:07:51;19.20;42.50
1391;DHT22;690;51.454;7.194;2022-08-21T02:10:22;19.10;71.80
1391;DHT22;690;51.454;7.194;2022-08-21T02:12:51;19.10;99.90
1391;DHT22;690;51.454;7.194;2022-08-21T02:15:19;19.00;99.90
1391;DHT22;690;51.454;7.194;2022-08-21T02:17:48;19.00;99.90
1391;DHT22;690;51.454;7.194;2022-08-21T02:20:19;18.90;99.90
1391;DHT22;690;51.454;7.194;2022-08-21T02:22:46;18.90;99.90
1391;DHT22;690;51.454;7.194;2022-08-21T02:25:13;18.90;99.90
1391;DHT22;690;51.454;7.194;2022-08-21T02:27:44;18.90;99.90
1391;DHT22;690;51.454;7.194;2022-08-21T02:30:17;18.80;99.90
1391;DHT22;690;51.454;7.194;2022-08-21T02:32:44;18.80;99.90
1391;DHT22;690;51.454;7.194;2022-08-21T02:35:12;18.80;99.90
1391;DHT22;690;51.454;7.194;2022-08-21T02:37:51;18.70;99.90
1391;DHT22;690;51.454;7.194;2022-08-21T02:40:20;18.70;99.90
1391;DHT22;690;51.454;7.194;2022-08-21T02:42:47;18.70;99.90
1391;DHT22;690;51.454;7.194;2022-08-21T02:45:17;18.60;99.90
1391;DHT22;690;51.454;7.194;2022-08-21T02:47:47;18.60;99.90
1391;DHT22;690;51.454;7.194;2022-08-21T02:50:18;18.60;99.90
1391;DHT22;690;51.454;7.194;2022-08-21T02:52:45;18.60;99.90
1391;DHT22;690;51.454;7.194;2022-08-21T02:55:12;18.60;99.90
1391;DHT22;690;51.454;7.194;2022-08-21T02:57:39;18.50;99.90
1391;DHT22;690;51.454;7.194;2022-08-21T03:00:07;18.50;1.00
1391;DHT22;690;51.454;7.194;2022-08-21T03:02:40;18.50;1.00
1391;DHT22;690;51.454;7.194;2022-08-21T03:05:08;18.50;1.00
1391;DHT22;690;51.454;7.194;2022-08-21T03:07:36;18.50;1.00
1391;DHT22;690;51.454;7.194;2022-08-21T03:10:03;18.50;1.00
1391;DHT22;690;51.454;7.194;2022-08-21T03:12:30;18.50;1.00
1391;DHT22;690;51.454;7.194;2022-08-21T03:14:57;18.40;1.00
1391;DHT22;690;51.454;7.194;2022-08-21T03:17:25;18.40;1.00
1391;DHT22;690;51.454;7.194;2022-08-21T03:19:54;18.40;1.00
1391;DHT22;690;51.454;7.194;2022-08-21T03:22:23;18.40;1.00
1391;DHT22;690;51.454;7.194;2022-08-21T03:24:50;18.40;1.00
1391;DHT22;690;51.454;7.194;2022-08-21T03:27:17;18.40;1.00
1391;DHT22;690;51.454;7.194;2022-08-21T03:29:44;18.40;1.00
1391;DHT22;690;51.454;7.194;2022-08-21T03:32:11;18.30;1.00
1391;DHT22;690;51.454;7.194;2022-08-21T03:34:38;18.30;1.00
1391;DHT22;690;51.454;7.194;2022-08-21T03:37:09;18.30;1.00
1391;DHT22;690;51.454;7.194;2022-08-21T03:39:36;18.20;1.00
1391;DHT22;690;51.454;7.194;2022-08-21T03:42:03;18.20;1.00
1391;DHT22;690;51.454;7.194;2022-08-21T03:44:31;18.10;1.00
1391;DHT22;690;51.454;7.194;2022-08-21T03:46:58;18.20;1.00
1391;DHT22;690;51.454;7.194;2022-08-21T03:49:29;18.10;1.00
1391;DHT22;690;51.454;7.194;2022-08-21T03:51:55;18.10;1.00
1391;DHT22;690;51.454;7.194;2022-08-21T03:54:24;18.10;1.00
1391;DHT22;690;51.454;7.194;2022-08-21T03:56:51;18.10;1.00
1391;DHT22;690;51.454;7.194;2022-08-21T03:59:18;18.10;26.50
1391;DHT22;690;51.454;7.194;2022-08-21T04:01:51;18.10;66.90
1391;DHT22;690;51.454;7.194;2022-08-21T04:04:18;18.10;96.20
1391;DHT22;690;51.454;7.194;2022-08-21T04:06:47;18.10;99.90
1391;DHT22;690;51.454;7.194;2022-08-21T04:09:15;18.00;99.90
1391;DHT22;690;51.454;7.194;2022-08-21T04:11:43;18.10;99.90
1391;DHT22;690;51.454;7.194;2022-08-21T04:14:11;18.10;99.90
1391;DHT22;690;51.454;7.194;2022-08-21T04:16:42;18.00;99.90
1391;DHT22;690;51.454;7.194;2022-08-21T04:19:09;18.00;99.90
1391;DHT22;690;51.454;7.194;2022-08-21T04:21:39;18.00;99.90
1391;DHT22;690;51.454;7.194;2022-08-21T04:24:07;18.00;99.90
1391;DHT22;690;51.454;7.194;2022-08-21T04:26:35;18.00;99.90
1391;DHT22;690;51.454;7.194;2022-08-21T04:29:04;18.00;99.90
1391;DHT22;690;51.454;7.194;2022-08-21T04:31:32;17.90;99.90
1391;DHT22;690;51.454;7.194;2022-08-21T04:34:00;17.90;99.90
1391;DHT22;690;51.454;7.194;2022-08-21T04:36:27;18.00;1.00
1391;DHT22;690;51.454;7.194;2022-08-21T04:38:54;18.00;1.00
1391;DHT22;690;51.454;7.194;2022-08-21T04:41:21;18.00;1.00
1391;DHT22;690;51.454;7.194;2022-08-21T04:43:48;18.00;1.00
1391;DHT22;690;51.454;7.194;2022-08-21T04:46:16;18.10;1.00
1391;DHT22;690;51.454;7.194;2022-08-21T04:48:44;18.10;1.00
1391;DHT22;690;51.454;7.194;2022-08-21T04:51:13;18.10;1.00
1391;DHT22;690;51.454;7.194;2022-08-21T04:53:45;18.10;1.00
1391;DHT22;690;51.454;7.194;2022-08-21T04:56:15;18.10;1.00
1391;DHT22;690;51.454;7.194;2022-08-21T04:58:45;18.10;1.00
1391;DHT22;690;51.454;7.194;2022-08-21T05:01:22;18.10;1.00
1391;DHT22;690;51.454;7.194;2022-08-21T05:03:52;18.10;1.00
1391;DHT22;690;51.454;7.194;2022-08-21T05:06:21;18.10;1.00
1391;DHT22;690;51.454;7.194;2022-08-21T05:08:49;18.10;1.00
1391;DHT22;690;51.454;7.194;2022-08-21T05:11:17;18.10;1.00
1391;DHT22;690;51.454;7.194;2022-08-21T05:13:47;18.10;1.00
1391;DHT22;690;51.454;7.194;2022-08-21T05:16:14;18.20;1.00
1391;DHT22;690;51.454;7.194;2022-08-21T05:18:43;18.20;1.00
1391;DHT22;690;51.454;7.194;2022-08-21T05:21:10;18.20;1.60
1391;DHT22;690;51.454;7.194;2022-08-21T05:23:37;18.20;99.90
1391;DHT22;690;51.454;7.194;2022-08-21T05:26:04;18.30;99.90
1391;DHT22;690;51.454;7.194;2022-08-21T05:28:33;18.30;99.90
1391;DHT22;690;51.454;7.194;2022-08-21T05:31:03;18.40;99.90
1391;DHT22;690;51.454;7.194;2022-08-21T05:33:30;18.40;99.90
1391;DHT22;690;51.454;7.194;2022-08-21T05:35:58;18.50;95.40
1391;DHT22;690;51.454;7.194;2022-08-21T05:38:26;18.50;99.90
1391;DHT22;690;51.454;7.194;2022-08-21T05:40:54;18.60;99.90
1391;DHT22;690;51.454;7.194;2022-08-21T05:43:21;18.70;99.90
1391;DHT22;690;51.454;7.194;2022-08-21T05:45:48;18.70;59.80
1391;DHT22;690;51.454;7.194;2022-08-21T05:48:21;18.80;1.00
1391;DHT22;690;51.454;7.194;2022-08-21T05:50:50;18.90;1.00
1391;DHT22;690;51.454;7.194;2022-08-21T05:53:21;18.90;1.00
1391;DHT22;690;51.454;7.194;2022-08-21T05:55:48;19.00;1.00
1391;DHT22;690;51.454;7.194;2022-08-21T05:58:17;19.10;99.90
1391;DHT22;690;51.454;7.194;2022-08-21T06:00:46;19.10;99.90
1391;DHT22;690;51.454;7.194;2022-08-21T06:03:15;19.10;99.90
1391;DHT22;690;51.454;7.194;2022-08-21T06:05:43;19.20;99.90
1391;DHT22;690;51.454;7.194;2022-08-21T06:08:11;19.20;99.90
1391;DHT22;690;51.454;7.194;2022-08-21T06:10:39;19.20;99.90
1391;DHT22;690;51.454;7.194;2022-08-21T06:13:06;19.30;99.90
1391;DHT22;690;51.454;7.194;2022-08-21T06:15:33;19.30;99.90
1391;DHT22;690;51.454;7.194;2022-08-21T06:18:00;19.30;57.40
1391;DHT22;690;51.454;7.194;2022-08-21T06:20:27;19.40;16.40
1391;DHT22;690;51.454;7.194;2022-08-21T06:22:54;19.40;1.00
1391;DHT22;690;51.454;7.194;2022-08-21T06:25:21;19.50;1.00
1391;DHT22;690;51.454;7.194;2022-08-21T06:27:49;19.60;1.00
1391;DHT22;690;51.454;7.194;2022-08-21T06:30:17;19.60;1.00
1391;DHT22;690;51.454;7.194;2022-08-21T06:32:44;19.70;1.00
1391;DHT22;690;51.454;7.194;2022-08-21T06:35:11;19.70;1.00
1391;DHT22;690;51.454;7.194;2022-08-21T06:37:38;19.80;1.00
1391;DHT22;690;51.454;7.194;2022-08-21T06:40:06;19.90;99.90
1391;DHT22;690;51.454;7.194;2022-08-21T06:42:33;19.90;99.90
1391;DHT22;690;51.454;7.194;2022-08-21T06:45:01;20.00;99.90
1391;DHT22;690;51.454;7.194;2022-08-21T06:47:28;20.10;99.90
1391;DHT22;690;51.454;7.194;2022-08-21T06:49:55;20.20;99.90
1391;DHT22;690;51.454;7.194;2022-08-21T06:52:22;20.30;99.90
1391;DHT22;690;51.454;7.194;2022-08-21T06:54:49;20.30;99.90
1391;DHT22;690;51.454;7.194;2022-08-21T06:57:16;20.40;99.90
1391;DHT22;690;51.454;7.194;2022-08-21T06:59:43;20.50;99.90
1391;DHT22;690;51.454;7.194;2022-08-21T07:02:11;20.50;99.90
1391;DHT22;690;51.454;7.194;2022-08-21T07:04:38;20.70;99.90
1391;DHT22;690;51.454;7.194;2022-08-21T07:07:05;20.70;80.90
1391;DHT22;690;51.454;7.194;2022-08-21T07:09:31;20.80;29.50
1391;DHT22;690;51.454;7.194;2022-08-21T07:11:59;20.90;1.00
1391;DHT22;690;51.454;7.194;2022-08-21T07:14:26;20.90;1.00
1391;DHT22;690;51.454;7.194;2022-08-21T07:16:53;21.00;1.00
1391;DHT22;690;51.454;7.194;2022-08-21T07:19:21;21.10;1.00
1391;DHT22;690;51.454;7.194;2022-08-21T07:21:48;21.10;1.00
1391;DHT22;690;51.454;7.194;2022-08-21T07:24:15;21.20;1.00
1391;DHT22;690;51.454;7.194;2022-08-21T07:26:42;21.30;1.00
1391;DHT22;690;51.454;7.194;2022-08-21T07:29:09;21.30;1.00
1391;DHT22;690;51.454;7.194;2022-08-21T07:31:35;21.40;1.00
1391;DHT22;690;51.454;7.194;2022-08-21T07:34:02;21.40;1.00
1391;DHT22;690;51.454;7.194;2022-08-21T07:36:31;21.60;1.00
1391;DHT22;690;51.454;7.194;2022-08-21T07:38:57;21.60;1.00
1391;DHT22;690;51.454;7.194;2022-08-21T07:41:26;21.70;1.00
1391;DHT22;690;51.454;7.194;2022-08-21T07:43:54;21.70;1.00
1391;DHT22;690;51.454;7.194;2022-08-21T07:46:23;21.80;1.00
1391;DHT22;690;51.454;7.194;2022-08-21T07:48:50;21.90;1.00
1391;DHT22;690;51.454;7.194;2022-08-21T07:51:19;21.90;1.00
1391;DHT22;690;51.454;7.194;2022-08-21T07:53:49;21.90;1.00
1391;DHT22;690;51.454;7.194;2022-08-21T07:56:17;22.00;1.00
1391;DHT22;690;51.454;7.194;2022-08-21T07:58:44;22.00;1.00
1391;DHT22;690;51.454;7.194;2022-08-21T08:01:11;22.10;1.00
1391;DHT22;690;51.454;7.194;2022-08-21T08:03:38;22.10;1.00
1391;DHT22;690;51.454;7.194;2022-08-21T08:06:05;22.20;99.90
1391;DHT22;690;51.454;7.194;2022-08-21T08:08:36;22.20;99.90
1391;DHT22;690;51.454;7.194;2022-08-21T08:11:05;22.30;99.90
1391;DHT22;690;51.454;7.194;2022-08-21T08:13:37;22.40;99.90
1391;DHT22;690;51.454;7.194;2022-08-21T08:16:04;22.40;99.90
1391;DHT22;690;51.454;7.194;2022-08-21T08:18:31;22.40;99.90
1391;DHT22;690;51.454;7.194;2022-08-21T08:20:58;22.50;99.90
1391;DHT22;690;51.454;7.194;2022-08-21T08:23:25;22.50;99.90
1391;DHT22;690;51.454;7.194;2022-08-21T08:25:52;22.50;99.90
1391;DHT22;690;51.454;7.194;2022-08-21T08:28:21;22.50;99.90
1391;DHT22;690;51.454;7.194;2022-08-21T08:30:48;22.60;99.90
1391;DHT22;690;51.454;7.194;2022-08-21T08:33:16;22.60;99.90
1391;DHT22;690;51.454;7.194;2022-08-21T08:35:45;22.70;99.90
1391;DHT22;690;51.454;7.194;2022-08-21T08:38:13;22.80;99.90
1391;DHT22;690;51.454;7.194;2022-08-21T08:40:47;22.80;99.90
1391;DHT22;690;51.454;7.194;2022-08-21T08:43:18;22.90;99.90
1391;DHT22;690;51.454;7.194;2022-08-21T08:45:50;22.90;99.90
1391;DHT22;690;51.454;7.194;2022-08-21T08:48:35;23.00;99.90
1391;DHT22;690;51.454;7.194;2022-08-21T08:51:06;23.00;99.90
1391;DHT22;690;51.454;7.194;2022-08-21T08:53:45;23.00;99.90
1391;DHT22;690;51.454;7.194;2022-08-21T08:56:14;23.00;99.90
1391;DHT22;690;51.454;7.194;2022-08-21T08:58:43;23.10;99.90
1391;DHT22;690;51.454;7.194;2022-08-21T09:01:16;23.20;99.90
1391;DHT22;690;51.454;7.194;2022-08-21T09:03:44;23.20;99.90
1391;DHT22;690;51.454;7.194;2022-08-21T09:06:23;23.30;99.90
1391;DHT22;690;51.454;7.194;2022-08-21T09:09:02;23.40;99.90
1391;DHT22;690;51.454;7.194;2022-08-21T09:11:40;23.50;99.90
1391;DHT22;690;51.454;7.194;2022-08-21T09:14:16;23.60;99.90
1391;DHT22;690;51.454;7.194;2022-08-21T09:16:56;23.80;99.90
1391;DHT22;690;51.454;7.194;2022-08-21T09:19:36;23.80;99.90
1391;DHT22;690;51.454;7.194;2022-08-21T09:22:09;23.80;99.90
1391;DHT22;690;51.454;7.194;2022-08-21T09:24:47;23.90;99.90
1391;DHT22;690;51.454;7.194;2022-08-21T09:27:18;23.90;99.90
1391;DHT22;690;51.454;7.194;2022-08-21T09:29:48;24.00;99.90
1391;DHT22;690;51.454;7.194;2022-08-21T09:32:19;24.00;99.90
1391;DHT22;690;51.454;7.194;2022-08-21T09:35:08;24.10;99.90
1391;DHT22;690;51.454;7.194;2022-08-21T09:37:47;24.00;99.90
1391;DHT22;690;51.454;7.194;2022-08-21T09:40:20;24.00;99.90
1391;DHT22;690;51.454;7.194;2022-08-21T09:42:55;23.90;99.90
1391;DHT22;690;51.454;7.194;2022-08-21T09:45:22;23.90;99.90
1391;DHT22;690;51.454;7.194;2022-08-21T09:47:50;23.90;99.90
1391;DHT22;690;51.454;7.194;2022-08-21T09:50:21;23.90;99.90
1391;DHT22;690;51.454;7.194;2022-08-21T09:52:51;23.90;99.90
1391;DHT22;690;51.454;7.194;2022-08-21T09:55:26;23.90;99.90
1391;DHT22;690;51.454;7.194;2022-08-21T09:58:15;24.00;99.90
1391;DHT22;690;51.454;7.194;2022-08-21T10:00:42;24.10;99.90
1391;DHT22;690;51.454;7.194;2022-08-21T10:03:15;24.20;99.90
1391;DHT22;690;51.454;7.194;2022-08-21T10:05:53;24.30;99.90
1391;DHT22;690;51.454;7.194;2022-08-21T10:08:22;24.40;99.90
1391;DHT22;690;51.454;7.194;2022-08-21T10:10:53;24.50;99.90
1391;DHT22;690;51.454;7.194;2022-08-21T10:13:25;24.50;99.90
1391;DHT22;690;51.454;7.194;2022-08-21T10:16:03;24.60;99.90
1391;DHT22;690;51.454;7.194;2022-08-21T10:18:37;24.60;99.90
1391;DHT22;690;51.454;7.194;2022-08-21T10:21:10;24.60;99.90
1391;DHT22;690;51.454;7.194;2022-08-21T10:23:47;24.70;99.90
1391;DHT22;690;51.454;7.194;2022-08-21T10:26:31;24.70;99.90
1391;DHT22;690;51.454;7.194;2022-08-21T10:29:03;24.70;99.90
1391;DHT22;690;51.454;7.194;2022-08-21T10:31:37;24.70;99.90
1391;DHT22;690;51.454;7.194;2022-08-21T10:34:19;24.80;99.90
1391;DHT22;690;51.454;7.194;2022-08-21T10:36:59;24.90;99.90
1391;DHT22;690;51.454;7.194;2022-08-21T10:39:32;24.90;99.90
1391;DHT22;690;51.454;7.194;2022-08-21T10:42:17;25.00;99.90
1391;DHT22;690;51.454;7.194;2022-08-21T10:44:56;25.10;99.90
1391;DHT22;690;51.454;7.194;2022-08-21T10:47:30;25.10;99.90
1391;DHT22;690;51.454;7.194;2022-08-21T10:50:07;25.10;99.90
1391;DHT22;690;51.454;7.194;2022-08-21T10:52:49;25.20;99.90
1391;DHT22;690;51.454;7.194;2022-08-21T10:55:20;25.30;99.90
1391;DHT22;690;51.454;7.194;2022-08-21T10:57:51;25.30;99.90
1391;DHT22;690;51.454;7.194;2022-08-21T11:00:22;25.30;99.90
1391;DHT22;690;51.454;7.194;2022-08-21T11:02:52;25.40;99.90
1391;DHT22;690;51.454;7.194;2022-08-21T11:05:26;25.50;99.90
1391;DHT22;690;51.454;7.194;2022-08-21T11:07:56;25.60;99.90
1391;DHT22;690;51.454;7.194;2022-08-21T11:10:33;25.80;99.90
1391;DHT22;690;51.454;7.194;2022-08-21T11:13:04;25.80;99.90
1391;DHT22;690;51.454;7.194;2022-08-21T11:15:38;25.80;99.90
1391;DHT22;690;51.454;7.194;2022-08-21T11:18:17;25.80;99.90
1391;DHT22;690;51.454;7.194;2022-08-21T11:20:56;25.90;99.90
1391;DHT22;690;51.454;7.194;2022-08-21T11:23:37;25.90;99.90
1391;DHT22;690;51.454;7.194;2022-08-21T11:26:09;26.10;99.90
1391;DHT22;690;51.454;7.194;2022-08-21T11:28:43;26.10;99.90
1391;DHT22;690;51.454;7.194;2022-08-21T11:31:23;26.20;99.90
1391;DHT22;690;51.454;7.194;2022-08-21T11:34:05;26.20;99.90
1391;DHT22;690;51.454;7.194;2022-08-21T11:36:41;26.30;99.90
1391;DHT22;690;51.454;7.194;2022-08-21T11:39:18;26.30;99.90
1391;DHT22;690;51.454;7.194;2022-08-21T11:41:54;26.40;99.90
1391;DHT22;690;51.454;7.194;2022-08-21T11:44:33;26.50;99.90
1391;DHT22;690;51.454;7.194;2022-08-21T11:47:14;26.50;99.90
1391;DHT22;690;51.454;7.194;2022-08-21T11:50:01;26.50;99.90
1391;DHT22;690;51.454;7.194;2022-08-21T11:52:33;26.50;99.90
1391;DHT22;690;51.454;7.194;2022-08-21T11:55:06;26.50;99.90
1391;DHT22;690;51.454;7.194;2022-08-21T11:57:37;26.60;99.90
1391;DHT22;690;51.454;7.194;2022-08-21T12:00:11;26.60;99.90
1391;DHT22;690;51.454;7.194;2022-08-21T12:02:43;26.60;99.90
1391;DHT22;690;51.454;7.194;2022-08-21T12:05:23;26.50;99.90
1391;DHT22;690;51.454;7.194;2022-08-21T12:08:03;26.50;99.90
1391;DHT22;690;51.454;7.194;2022-08-21T12:10:33;26.50;99.90
1391;DHT22;690;51.454;7.194;2022-08-21T12:13:07;26.50;99.90
1391;DHT22;690;51.454;7.194;2022-08-21T12:15:35;26.60;99.90
1391;DHT22;690;51.454;7.194;2022-08-21T12:18:05;26.60;99.90
1391;DHT22;690;51.454;7.194;2022-08-21T12:20:42;26.70;99.90
1391;DHT22;690;51.454;7.194;2022-08-21T12:23:24;26.70;99.90
1391;DHT22;690;51.454;7.194;2022-08-21T12:26:02;26.70;99.90
1391;DHT22;690;51.454;7.194;2022-08-21T12:28:30;26.70;99.90
1391;DHT22;690;51.454;7.194;2022-08-21T12:30:58;26.70;99.90
1391;DHT22;690;51.454;7.194;2022-08-21T12:33:28;26.80;99.90
1391;DHT22;690;51.454;7.194;2022-08-21T12:36:03;26.80;99.90
1391;DHT22;690;51.454;7.194;2022-08-21T12:38:41;26.90;99.90
1391;DHT22;690;51.454;7.194;2022-08-21T12:41:14;26.90;99.90
1391;DHT22;690;51.454;7.194;2022-08-21T12:43:46;27.00;99.90
1391;DHT22;690;51.454;7.194;2022-08-21T12:46:16;27.00;99.90
1391;DHT22;690;51.454;7.194;2022-08-21T12:48:48;27.10;99.90
1391;DHT22;690;51.454;7.194;2022-08-21T12:51:23;27.20;99.90
1391;DHT22;690;51.454;7.194;2022-08-21T12:53:56;27.30;99.90
1391;DHT22;690;51.454;7.194;2022-08-21T12:56:24;27.20;99.90
1391;DHT22;690;51.454;7.194;2022-08-21T12:58:55;27.20;99.90
1391;DHT22;690;51.454;7.194;2022-08-21T13:01:25;27.10;99.90
1391;DHT22;690;51.454;7.194;2022-08-21T13:03:57;27.20;99.90
1391;DHT22;690;51.454;7.194;2022-08-21T13:06:26;27.30;99.90
1391;DHT22;690;51.454;7.194;2022-08-21T13:08:59;27.40;99.90
1391;DHT22;690;51.454;7.194;2022-08-21T13:11:31;27.50;99.90
1391;DHT22;690;51.454;7.194;2022-08-21T13:14:00;27.60;99.90
1391;DHT22;690;51.454;7.194;2022-08-21T13:16:29;27.60;99.90
1391;DHT22;690;51.454;7.194;2022-08-21T13:18:59;27.40;99.90
1391;DHT22;690;51.454;7.194;2022-08-21T13:21:29;27.30;99.90
1391;DHT22;690;51.454;7.194;2022-08-21T13:24:10;27.30;99.90
1391;DHT22;690;51.454;7.194;2022-08-21T13:26:39;27.30;99.90
1391;DHT22;690;51.454;7.194;2022-08-21T13:29:07;27.20;99.90
1391;DHT22;690;51.454;7.194;2022-08-21T13:31:36;27.20;99.90
1391;DHT22;690;51.454;7.194;2022-08-21T13:34:04;27.20;99.90
1391;DHT22;690;51.454;7.194;2022-08-21T13:36:37;27.30;99.90
1391;DHT22;690;51.454;7.194;2022-08-21T13:39:09;27.50;99.90
1391;DHT22;690;51.454;7.194;2022-08-21T13:41:40;27.40;99.90
1391;DHT22;690;51.454;7.194;2022-08-21T13:44:16;27.40;99.90
1391;DHT22;690;51.454;7.194;2022-08-21T13:46:44;27.30;99.90
1391;DHT22;690;51.454;7.194;2022-08-21T13:49:14;27.30;99.90
1391;DHT22;690;51.454;7.194;2022-08-21T13:51:41;27.40;99.90
1391;DHT22;690;51.454;7.194;2022-08-21T13:54:24;27.50;99.90
1391;DHT22;690;51.454;7.194;2022-08-21T13:56:53;27.50;99.90
1391;DHT22;690;51.454;7.194;2022-08-21T13:59:26;27.60;99.90
1391;DHT22;690;51.454;7.194;2022-08-21T14:01:56;27.60;99.90
1391;DHT22;690;51.454;7.194;2022-08-21T14:04:29;27.60;99.90
1391;DHT22;690;51.454;7.194;2022-08-21T14:06:57;27.60;99.90
1391;DHT22;690;51.454;7.194;2022-08-21T14:09:31;27.50;99.90
1391;DHT22;690;51.454;7.194;2022-08-21T14:12:01;27.50;99.90
1391;DHT22;690;51.454;7.194;2022-08-21T14:14:31;27.60;99.90
1391;DHT22;690;51.454;7.194;2022-08-21T14:17:00;27.60;99.90
1391;DHT22;690;51.454;7.194;2022-08-21T14:19:35;27.60;99.90
1391;DHT22;690;51.454;7.194;2022-08-21T14:22:21;27.70;99.90
1391;DHT22;690;51.454;7.194;2022-08-21T14:24:49;27.60;99.90
1391;DHT22;690;51.454;7.194;2022-08-21T14:27:18;27.60;99.90
1391;DHT22;690;51.454;7.194;2022-08-21T14:29:45;27.60;99.90
1391;DHT22;690;51.454;7.194;2022-08-21T14:32:14;27.50;99.90
1391;DHT22;690;51.454;7.194;2022-08-21T14:34:41;27.50;99.90
1391;DHT22;690;51.454;7.194;2022-08-21T14:37:08;27.40;99.90
1391;DHT22;690;51.454;7.194;2022-08-21T14:39:35;27.40;99.90
1391;DHT22;690;51.454;7.194;2022-08-21T14:42:04;27.40;99.90
1391;DHT22;690;51.454;7.194;2022-08-21T14:44:31;27.40;99.90
1391;DHT22;690;51.454;7.194;2022-08-21T14:46:59;27.30;99.90
1391;DHT22;690;51.454;7.194;2022-08-21T14:49:28;27.30;99.90
1391;DHT22;690;51.454;7.194;2022-08-21T14:51:55;27.20;99.90
1391;DHT22;690;51.454;7.194;2022-08-21T14:54:23;27.20;99.90
1391;DHT22;690;51.454;7.194;2022-08-21T14:56:50;27.20;99.90
1391;DHT22;690;51.454;7.194;2022-08-21T14:59:18;27.20;99.90
1391;DHT22;690;51.454;7.194;2022-08-21T15:01:46;27.20;99.90
1391;DHT22;690;51.454;7.194;2022-08-21T15:04:14;27.10;99.90
1391;DHT22;690;51.454;7.194;2022-08-21T15:06:41;27.20;99.90
1391;DHT22;690;51.454;7.194;2022-08-21T15:09:08;27.10;99.90
1391;DHT22;690;51.454;7.194;2022-08-21T15:11:35;27.10;99.90
1391;DHT22;690;51.454;7.194;2022-08-21T15:14:06;27.00;99.90
1391;DHT22;690;51.454;7.194;2022-08-21T15:16:35;27.10;99.90
1391;DHT22;690;51.454;7.194;2022-08-21T15:19:02;27.10;99.90
1391;DHT22;690;51.454;7.194;2022-08-21T15:21:29;27.20;99.90
1391;DHT22;690;51.454;7.194;2022-08-21T15:23:56;27.30;99.90
1391;DHT22;690;51.454;7.194;2022-08-21T15:26:23;27.50;99.90
1391;DHT22;690;51.454;7.194;2022-08-21T15:28:50;27.70;99.90
1391;DHT22;690;51.454;7.194;2022-08-21T15:31:17;27.90;99.90
1391;DHT22;690;51.454;7.194;2022-08-21T15:33:45;28.30;99.90
1391;DHT22;690;51.454;7.194;2022-08-21T15:36:12;28.50;99.90
1391;DHT22;690;51.454;7.194;2022-08-21T15:38:39;28.60;99.90
1391;DHT22;690;51.454;7.194;2022-08-21T15:41:06;28.70;99.90
1391;DHT22;690;51.454;7.194;2022-08-21T15:43:40;28.80;99.90
1391;DHT22;690;51.454;7.194;2022-08-21T15:46:10;29.00;99.90
1391;DHT22;690;51.454;7.194;2022-08-21T15:48:38;29.20;99.90
1391;DHT22;690;51.454;7.194;2022-08-21T15:51:10;29.30;99.90
1391;DHT22;690;51.454;7.194;2022-08-21T15:53:37;29.20;99.90
1391;DHT22;690;51.454;7.194;2022-08-21T15:56:06;29.00;99.90
1391;DHT22;690;51.454;7.194;2022-08-21T15:58:37;28.90;99.90
1391;DHT22;690;51.454;7.194;2022-08-21T16:01:05;28.90;99.90
1391;DHT22;690;51.454;7.194;2022-08-21T16:03:33;28.90;99.90
1391;DHT22;690;51.454;7.194;2022-08-21T16:05:59;28.90;99.90
1391;DHT22;690;51.454;7.194;2022-08-21T16:08:28;28.80;99.90
1391;DHT22;690;51.454;7.194;2022-08-21T16:10:55;28.80;99.90
1391;DHT22;690;51.454;7.194;2022-08-21T16:13:26;28.90;99.90
1391;DHT22;690;51.454;7.194;2022-08-21T16:15:54;28.80;99.90
1391;DHT22;690;51.454;7.194;2022-08-21T16:18:22;28.80;99.90
1391;DHT22;690;51.454;7.194;2022-08-21T16:20:50;28.60;99.90
1391;DHT22;690;51.454;7.194;2022-08-21T16:23:17;28.40;99.90
1391;DHT22;690;51.454;7.194;2022-08-21T16:25:45;28.30;99.90
1391;DHT22;690;51.454;7.194;2022-08-21T16:28:15;28.20;99.90
1391;DHT22;690;51.454;7.194;2022-08-21T16:30:46;28.10;99.90
1391;DHT22;690;51.454;7.194;2022-08-21T16:33:24;28.00;99.90
1391;DHT22;690;51.454;7.194;2022-08-21T16:35:53;27.90;99.90
1391;DHT22;690;51.454;7.194;2022-08-21T16:38:20;27.90;99.90
1391;DHT22;690;51.454;7.194;2022-08-21T16:40:48;28.00;99.90